Time;durP1;ratioP1;P1;durP2;ratioP2;P2;SDS_P1;SDS_P2;PMS_P1;PMS_P2;Temp;Humidity;BMP_temperature;BMP_pressure;BME280_temperature;BME280_humidity;BME280_pressure;Samples;Min_cycle;Max_cycle;Signal;HPM_P1;HPM_P2
2022/09/25 00:01:57;;;;;;;12.83;7.80;;;8.30;99.90;;;;;;5056444;28;20184;-90
2022/09/25 00:04:23;;;;;;;10.90;7.27;;;7.10;99.90;;;;;;5065027;28;20191;-89
2022/09/25 00:06:48;;;;;;;16.87;8.30;;;7.70;99.90;;;;;;5075323;28;20592;-90
2022/09/25 00:09:19;;;;;;;16.30;8.43;;;7.10;99.90;;;;;;5075642;28;20601;-89
2022/09/25 00:11:44;;;;;;;10.00;7.87;;;7.20;99.90;;;;;;5058103;28;20180;-90
2022/09/25 00:14:10;;;;;;;13.07;7.33;;;7.10;99.90;;;;;;5075269;28;20698;-90
2022/09/25 00:16:36;;;;;;;16.90;8.40;;;7.20;99.90;;;;;;5074733;28;20266;-87
2022/09/25 00:21:50;;;;;;;12.73;7.90;;;7.20;99.90;;;;;;5039927;28;20210;-89
2022/09/25 00:24:15;;;;;;;6.30;5.77;;;7.30;99.90;;;;;;5055260;28;20172;-89
2022/09/25 00:26:42;;;;;;;10.03;6.83;;;8.50;99.90;;;;;;5055156;28;20234;-90
2022/09/25 00:29:12;;;;;;;8.73;6.20;;;7.90;99.90;;;;;;5054778;28;20226;-90
2022/09/25 00:31:38;;;;;;;10.60;8.50;;;7.40;99.90;;;;;;5054531;28;20292;-87
2022/09/25 00:34:04;;;;;;;16.43;8.00;;;7.20;99.90;;;;;;5041388;28;20676;-90
2022/09/25 00:36:31;;;;;;;12.87;9.50;;;7.40;99.90;;;;;;5075006;28;20232;-91
2022/09/25 00:38:57;;;;;;;8.83;7.17;;;7.50;99.90;;;;;;5074689;28;20180;-90
2022/09/25 00:41:24;;;;;;;14.00;7.17;;;7.40;99.90;;;;;;5074925;28;20171;-90
2022/09/25 00:43:54;;;;;;;18.40;9.20;;;8.60;99.90;;;;;;5056650;28;20189;-92
2022/09/25 00:46:31;;;;;;;20.10;8.30;;;7.40;99.90;;;;;;5057018;28;20233;-90
2022/09/25 00:49:16;;;;;;;9.90;6.43;;;7.40;99.90;;;;;;5056535;28;20179;-89
2022/09/25 00:51:52;;;;;;;14.93;6.77;;;7.40;99.90;;;;;;5074387;28;20178;-89
2022/09/25 00:54:35;;;;;;;11.37;6.30;;;7.40;99.90;;;;;;5074573;28;20199;-89
2022/09/25 00:57:05;;;;;;;28.40;7.90;;;7.40;99.90;;;;;;5074303;28;20541;-90
2022/09/25 00:59:39;;;;;;;15.93;7.57;;;7.40;99.90;;;;;;5074514;28;20623;-90
2022/09/25 01:02:08;;;;;;;9.30;6.10;;;7.40;99.90;;;;;;5074247;28;20166;-89
2022/09/25 01:04:36;;;;;;;8.77;5.23;;;7.50;99.90;;;;;;5074316;28;20175;-89
2022/09/25 01:07:02;;;;;;;9.50;6.37;;;8.90;99.90;;;;;;5054604;28;20710;-89
2022/09/25 01:09:29;;;;;;;17.13;8.27;;;7.50;99.90;;;;;;5054626;28;20211;-89
2022/09/25 01:11:55;;;;;;;13.07;6.47;;;7.50;99.90;;;;;;5035979;28;20540;-89
2022/09/25 01:14:21;;;;;;;8.80;6.73;;;7.50;99.90;;;;;;5036154;28;20211;-89
2022/09/25 01:16:58;;;;;;;11.67;7.60;;;7.50;99.90;;;;;;5053824;28;20191;-88
2022/09/25 01:19:32;;;;;;;13.67;7.33;;;7.50;99.90;;;;;;5054062;28;20258;-88
2022/09/25 01:22:12;;;;;;;12.70;8.13;;;7.60;99.90;;;;;;5053498;28;20152;-88
2022/09/25 01:25:10;;;;;;;9.40;6.33;;;8.10;99.90;;;;;;5037436;28;20519;-89
2022/09/25 01:28:14;;;;;;;10.37;6.17;;;7.60;99.90;;;;;;5036255;28;20215;-89
2022/09/25 01:30:44;;;;;;;8.20;6.23;;;7.50;99.90;;;;;;4992890;28;20253;-89
2022/09/25 01:33:17;;;;;;;14.27;7.17;;;7.60;99.90;;;;;;5043247;28;20224;-89
2022/09/25 01:36:06;;;;;;;11.27;7.60;;;7.50;99.90;;;;;;5036324;28;20527;-90
2022/09/25 01:38:45;;;;;;;10.57;6.83;;;7.50;99.90;;;;;;5067938;28;20260;-89
2022/09/25 01:41:26;;;;;;;7.80;4.53;;;7.50;99.90;;;;;;5073887;28;20599;-89
2022/09/25 01:44:22;;;;;;;7.77;6.70;;;7.50;99.90;;;;;;5055832;28;20179;-89
2022/09/25 01:46:51;;;;;;;6.47;4.40;;;7.50;99.90;;;;;;5055666;28;20171;-89
2022/09/25 01:49:25;;;;;;;8.87;6.63;;;7.50;99.90;;;;;;5073718;28;20171;-89
2022/09/25 01:51:53;;;;;;;10.37;5.27;;;7.60;99.90;;;;;;5055802;28;20182;-88
2022/09/25 01:54:33;;;;;;;7.43;5.53;;;8.00;99.90;;;;;;5073695;28;20203;-89
2022/09/25 01:57:06;;;;;;;11.07;5.50;;;7.60;99.90;;;;;;5054383;28;20175;-90
2022/09/25 01:59:44;;;;;;;7.90;3.70;;;8.10;99.90;;;;;;5068345;28;20217;-89
2022/09/25 02:02:13;;;;;;;5.93;4.13;;;7.60;99.90;;;;;;5073266;28;20167;-89
2022/09/25 02:05:04;;;;;;;10.70;4.83;;;7.70;99.90;;;;;;5079688;28;20215;-89
2022/09/25 02:07:36;;;;;;;10.30;5.90;;;7.60;99.90;;;;;;5074285;28;20163;-89
2022/09/25 02:10:08;;;;;;;7.53;4.83;;;7.60;99.90;;;;;;5089737;28;20155;-89
2022/09/25 02:12:39;;;;;;;9.97;4.97;;;7.60;99.90;;;;;;5091372;28;20179;-89
2022/09/25 02:15:14;;;;;;;8.17;5.03;;;7.90;99.90;;;;;;5089890;28;20148;-88
2022/09/25 02:21:17;;;;;;;6.10;4.53;;;7.60;99.90;;;;;;5076941;28;20208;-88
2022/09/25 02:23:52;;;;;;;5.53;4.00;;;7.60;99.90;;;;;;5066729;28;20206;-89
2022/09/25 02:26:32;;;;;;;5.50;3.83;;;7.60;99.90;;;;;;5078140;28;20162;-88
2022/09/25 02:28:58;;;;;;;4.33;3.93;;;7.60;99.90;;;;;;5080749;28;20185;-87
2022/09/25 02:31:47;;;;;;;5.43;4.23;;;7.50;99.90;;;;;;5097904;28;20226;-89
2022/09/25 02:34:13;;;;;;;3.23;2.93;;;7.50;99.90;;;;;;5097638;28;20221;-89
2022/09/25 02:36:39;;;;;;;4.67;4.23;;;7.50;99.90;;;;;;5080072;28;20179;-87
2022/09/25 02:39:07;;;;;;;4.50;4.10;;;8.10;99.90;;;;;;5057783;28;20175;-89
2022/09/25 02:41:45;;;;;;;8.83;4.10;;;7.40;99.90;;;;;;5052748;28;20171;-90
2022/09/25 02:44:20;;;;;;;7.80;4.67;;;7.40;99.90;;;;;;5052596;28;20234;-89
2022/09/25 02:47:04;;;;;;;6.50;4.07;;;7.30;99.90;;;;;;5052975;28;20225;-89
2022/09/25 02:49:55;;;;;;;3.87;3.43;;;7.30;99.90;;;;;;5062257;28;20198;-89
2022/09/25 02:52:36;;;;;;;6.50;4.53;;;7.20;99.90;;;;;;5073567;28;20205;-89
2022/09/25 02:55:11;;;;;;;4.67;4.10;;;7.20;99.90;;;;;;5072409;28;20190;-89
2022/09/25 02:57:48;;;;;;;6.67;5.37;;;7.20;99.90;;;;;;5054984;28;20590;-90
2022/09/25 03:00:15;;;;;;;8.23;3.73;;;7.10;99.90;;;;;;5072670;28;20221;-89
2022/09/25 03:02:42;;;;;;;5.10;3.63;;;7.40;99.90;;;;;;5055457;28;20175;-89
2022/09/25 03:05:12;;;;;;;4.83;4.17;;;7.20;99.90;;;;;;5072456;28;20195;-89
2022/09/25 03:10:23;;;;;;;4.77;3.97;;;7.00;99.90;;;;;;5059110;28;20195;-89
2022/09/25 03:12:48;;;;;;;7.40;3.77;;;8.00;99.90;;;;;;5034888;28;20220;-90
2022/09/25 03:15:15;;;;;;;4.57;3.37;;;8.30;99.90;;;;;;5052814;28;20267;-91
2022/09/25 03:17:41;;;;;;;10.30;4.57;;;7.40;99.90;;;;;;5052621;28;20226;-90
2022/09/25 03:20:08;;;;;;;8.20;5.20;;;7.00;99.90;;;;;;5035347;28;20218;-89
2022/09/25 03:22:35;;;;;;;7.33;5.87;;;7.00;99.90;;;;;;5038763;28;20191;-90
2022/09/25 03:25:00;;;;;;;5.83;5.13;;;7.70;99.90;;;;;;5050978;28;20187;-89
2022/09/25 03:27:27;;;;;;;5.33;3.70;;;7.40;99.90;;;;;;5072352;28;20206;-88
2022/09/25 03:29:54;;;;;;;4.63;3.87;;;7.00;99.90;;;;;;5072351;28;20239;-88
2022/09/25 03:32:20;;;;;;;9.07;4.33;;;7.00;99.90;;;;;;5075007;28;20646;-88
2022/09/25 03:34:46;;;;;;;9.60;5.10;;;7.70;99.90;;;;;;5074618;28;20222;-90
2022/09/25 03:37:11;;;;;;;4.70;4.30;;;6.90;99.90;;;;;;5055966;28;20180;-89
2022/09/25 03:39:37;;;;;;;7.70;4.80;;;6.90;99.90;;;;;;5038435;28;20594;-89
2022/09/25 03:42:03;;;;;;;8.83;4.73;;;6.90;99.90;;;;;;5055697;28;20198;-89
2022/09/25 03:44:29;;;;;;;9.83;5.43;;;6.90;99.90;;;;;;5055914;28;20625;-89
2022/09/25 03:46:55;;;;;;;3.77;3.37;;;6.80;99.90;;;;;;5038151;28;20182;-89
2022/09/25 03:49:21;;;;;;;8.23;4.73;;;7.10;99.90;;;;;;5055312;28;21043;-89
2022/09/25 03:51:46;;;;;;;5.80;5.17;;;7.10;99.90;;;;;;5055765;28;20187;-89
2022/09/25 03:54:12;;;;;;;5.30;3.77;;;6.80;99.90;;;;;;5037641;28;20215;-89
2022/09/25 03:56:38;;;;;;;5.70;3.80;;;6.80;99.90;;;;;;5058586;28;20256;-89
2022/09/25 03:59:03;;;;;;;6.83;5.43;;;7.80;99.90;;;;;;5046550;28;20187;-88
2022/09/25 04:01:29;;;;;;;9.07;3.83;;;7.00;99.90;;;;;;5046703;28;20275;-89
2022/09/25 04:03:55;;;;;;;6.67;5.13;;;6.80;99.90;;;;;;5056327;28;20192;-89
2022/09/25 04:06:23;;;;;;;4.87;3.43;;;6.70;99.90;;;;;;5074849;28;20175;-89
2022/09/25 04:08:49;;;;;;;6.20;4.70;;;6.70;99.90;;;;;;5063729;28;20259;-89
2022/09/25 04:11:17;;;;;;;9.23;5.20;;;6.70;99.90;;;;;;5064725;28;20682;-89
2022/09/25 04:13:43;;;;;;;7.37;4.60;;;6.60;99.90;;;;;;5058078;28;20290;-88
2022/09/25 04:16:10;;;;;;;6.57;4.13;;;6.60;99.90;;;;;;5058667;28;20190;-88
2022/09/25 04:18:36;;;;;;;5.20;4.73;;;7.90;99.90;;;;;;5075896;28;20191;-89
2022/09/25 04:21:05;;;;;;;5.20;4.70;;;7.40;99.90;;;;;;5076411;28;20183;-89
2022/09/25 04:23:31;;;;;;;7.67;4.93;;;6.50;99.90;;;;;;5078215;28;20201;-88
2022/09/25 04:25:57;;;;;;;10.90;4.97;;;7.30;99.90;;;;;;5065690;28;20208;-89
2022/09/25 04:28:23;;;;;;;4.77;3.87;;;8.20;99.90;;;;;;5057848;28;20542;-87
2022/09/25 04:30:49;;;;;;;6.07;4.33;;;6.50;99.90;;;;;;5058588;28;20319;-89
2022/09/25 04:36:00;;;;;;;11.73;4.53;;;8.20;99.90;;;;;;5080547;28;20245;-88
2022/09/25 04:38:26;;;;;;;8.67;3.97;;;6.40;99.90;;;;;;5038491;28;20436;-89
2022/09/25 04:40:52;;;;;;;6.57;3.47;;;6.70;99.90;;;;;;5055103;28;20190;-88
2022/09/25 04:43:18;;;;;;;3.47;3.17;;;7.30;99.90;;;;;;5053510;28;20703;-88
2022/09/25 04:45:45;;;;;;;9.03;4.40;;;6.80;99.90;;;;;;5054936;28;20266;-88
2022/09/25 04:48:11;;;;;;;5.27;4.53;;;6.60;99.90;;;;;;5055440;28;20176;-89
2022/09/25 04:50:37;;;;;;;4.07;3.67;;;6.70;99.90;;;;;;5061932;28;20194;-89
2022/09/25 04:53:03;;;;;;;4.43;4.03;;;6.40;99.90;;;;;;5063108;28;20212;-89
2022/09/25 04:55:28;;;;;;;5.63;3.77;;;6.70;99.90;;;;;;5076960;28;20992;-89
2022/09/25 04:57:55;;;;;;;10.13;3.97;;;6.40;99.90;;;;;;5076862;28;20531;-90
2022/09/25 05:00:23;;;;;;;2.37;2.17;;;6.40;99.90;;;;;;5094525;28;20254;-90
2022/09/25 05:02:48;;;;;;;5.67;3.77;;;8.30;99.90;;;;;;5076669;28;20194;-88
2022/09/25 05:05:14;;;;;;;5.97;3.83;;;7.70;99.90;;;;;;5081971;28;20188;-88
2022/09/25 05:07:49;;;;;;;4.47;2.50;;;6.60;99.90;;;;;;5069399;28;20193;-90
2022/09/25 05:10:15;;;;;;;3.80;2.83;;;6.60;99.90;;;;;;5070402;28;20163;-89
2022/09/25 05:12:41;;;;;;;10.60;4.50;;;6.70;99.90;;;;;;5049386;28;20188;-89
2022/09/25 05:15:08;;;;;;;3.93;3.53;;;6.90;99.90;;;;;;5071846;28;20733;-88
2022/09/25 05:17:34;;;;;;;12.50;4.53;;;6.70;99.90;;;;;;5075667;28;20183;-89
2022/09/25 05:19:59;;;;;;;3.83;3.53;;;6.70;99.90;;;;;;5059265;28;20270;-88
2022/09/25 05:22:25;;;;;;;5.33;4.40;;;6.80;99.90;;;;;;5065179;28;20209;-89
2022/09/25 05:24:52;;;;;;;11.10;4.53;;;6.80;99.90;;;;;;5062599;28;20233;-89
2022/09/25 05:27:17;;;;;;;6.13;4.10;;;6.90;99.90;;;;;;5046423;28;20684;-86
2022/09/25 05:29:43;;;;;;;4.57;3.30;;;6.90;99.90;;;;;;5059986;28;20192;-89
2022/09/25 05:32:09;;;;;;;3.90;3.57;;;7.40;99.90;;;;;;5044694;28;20621;-88
2022/09/25 05:34:34;;;;;;;4.93;4.40;;;7.00;99.90;;;;;;5030856;28;20357;-91
2022/09/25 05:37:00;;;;;;;4.73;3.80;;;7.40;99.90;;;;;;5045066;28;20707;-89
2022/09/25 05:39:25;;;;;;;9.50;4.13;;;7.10;99.90;;;;;;5045551;28;20187;-90
2022/09/25 05:41:51;;;;;;;4.63;3.10;;;7.10;99.90;;;;;;5062147;28;20191;-89
2022/09/25 05:44:17;;;;;;;12.97;4.47;;;7.20;99.90;;;;;;5059000;28;20275;-89
2022/09/25 05:46:42;;;;;;;3.40;3.10;;;7.30;99.90;;;;;;5043587;28;20641;-86
2022/09/25 05:49:08;;;;;;;8.80;3.53;;;7.30;99.90;;;;;;5059919;28;20190;-88
2022/09/25 05:51:33;;;;;;;3.43;3.20;;;7.40;99.90;;;;;;5062211;28;20640;-89
2022/09/25 05:53:59;;;;;;;3.43;3.03;;;8.50;99.90;;;;;;5063739;28;20211;-90
2022/09/25 05:56:25;;;;;;;4.47;3.33;;;7.50;99.90;;;;;;5050509;28;20625;-92
2022/09/25 05:58:51;;;;;;;3.43;2.30;;;7.60;99.90;;;;;;5063541;28;20234;-90
2022/09/25 06:01:18;;;;;;;4.03;3.57;;;7.70;99.90;;;;;;5062001;28;20214;-89
2022/09/25 06:03:44;;;;;;;3.17;2.53;;;7.70;99.90;;;;;;5060035;28;20696;-88
2022/09/25 06:06:09;;;;;;;5.97;2.97;;;7.80;99.90;;;;;;5061314;28;20274;-90
2022/09/25 06:08:35;;;;;;;7.30;3.60;;;7.80;99.90;;;;;;5050372;28;20272;-91
2022/09/25 06:11:01;;;;;;;5.67;2.33;;;7.80;99.90;;;;;;5073240;28;20179;-91
2022/09/25 06:13:29;;;;;;;6.17;4.27;;;7.90;99.90;;;;;;5083736;28;20214;-90
2022/09/25 06:15:55;;;;;;;4.40;3.77;;;8.00;99.90;;;;;;5055172;28;20299;-92
2022/09/25 06:18:23;;;;;;;3.40;2.80;;;8.00;99.90;;;;;;5068084;28;20191;-92
2022/09/25 06:20:50;;;;;;;5.37;3.97;;;8.10;99.90;;;;;;5091930;28;20178;-92
2022/09/25 06:23:16;;;;;;;4.40;3.23;;;8.20;99.90;;;;;;5087648;28;20229;-91
2022/09/25 06:25:42;;;;;;;7.40;4.23;;;8.40;99.90;;;;;;5054755;28;20274;-91
2022/09/25 06:28:09;;;;;;;8.43;5.73;;;8.30;99.90;;;;;;5055968;28;20210;-91
2022/09/25 06:30:37;;;;;;;7.33;5.47;;;8.50;99.90;;;;;;5070363;28;20229;-91
2022/09/25 06:33:06;;;;;;;5.43;4.43;;;8.70;99.90;;;;;;5065208;28;20203;-91
2022/09/25 06:35:33;;;;;;;2.87;2.60;;;9.20;99.90;;;;;;5044040;28;20583;-90
2022/09/25 06:38:00;;;;;;;5.17;3.90;;;8.90;99.90;;;;;;5072664;28;20189;-91
2022/09/25 06:40:27;;;;;;;5.30;3.53;;;10.80;99.90;;;;;;5054733;28;20183;-90
2022/09/25 06:43:00;;;;;;;5.47;3.47;;;9.10;99.90;;;;;;5068536;28;20214;-90
2022/09/25 06:45:29;;;;;;;10.00;4.07;;;9.20;99.90;;;;;;5067986;28;20193;-90
2022/09/25 06:48:03;;;;;;;6.07;2.93;;;9.30;99.90;;;;;;5040769;28;20176;-89
2022/09/25 06:50:39;;;;;;;3.27;2.93;;;9.50;99.90;;;;;;5054309;28;20280;-89
2022/09/25 06:53:04;;;;;;;3.97;3.17;;;9.60;99.90;;;;;;5063982;28;20194;-90
2022/09/25 06:55:31;;;;;;;3.90;3.30;;;9.60;99.90;;;;;;5043522;28;20198;-90
2022/09/25 06:57:57;;;;;;;3.70;3.10;;;9.70;99.90;;;;;;5059950;28;20271;-89
2022/09/25 07:00:22;;;;;;;3.93;3.23;;;9.90;99.90;;;;;;5044776;28;20321;-89
2022/09/25 07:05:33;;;;;;;6.40;3.57;;;10.10;99.90;;;;;;5048729;28;20190;-88
2022/09/25 07:07:59;;;;;;;3.63;3.17;;;10.20;99.90;;;;;;5046278;28;20206;-89
2022/09/25 07:10:24;;;;;;;3.33;2.83;;;10.40;99.90;;;;;;5068461;28;20502;-88
2022/09/25 07:12:50;;;;;;;3.03;2.67;;;10.50;99.90;;;;;;5066489;28;20196;-90
2022/09/25 07:15:15;;;;;;;4.80;3.30;;;10.60;99.90;;;;;;5067058;28;20653;-88
2022/09/25 07:17:44;;;;;;;2.57;2.37;;;10.70;99.90;;;;;;5064759;28;20183;-89
2022/09/25 07:20:14;;;;;;;3.75;2.75;;;10.80;99.90;;;;;;5065807;28;20198;-91
2022/09/25 07:22:40;;;;;;;4.88;3.63;;;10.80;99.90;;;;;;5065359;28;20555;-90
2022/09/25 07:25:07;;;;;;;4.33;3.30;;;10.60;99.90;;;;;;5046934;28;20180;-88
2022/09/25 07:27:32;;;;;;;5.53;3.70;;;10.80;99.90;;;;;;5046661;28;20175;-86
2022/09/25 07:29:58;;;;;;;4.15;2.97;;;10.90;99.90;;;;;;5048066;28;20237;-87
2022/09/25 07:32:24;;;;;;;4.00;3.42;;;11.20;99.90;;;;;;5046806;28;20172;-87
2022/09/25 07:34:50;;;;;;;4.00;3.25;;;11.10;99.90;;;;;;5065552;28;20691;-87
2022/09/25 07:37:16;;;;;;;3.25;2.53;;;11.10;99.90;;;;;;5066041;28;20182;-88
2022/09/25 07:39:42;;;;;;;4.22;3.08;;;11.80;99.90;;;;;;5063683;28;20222;-87
2022/09/25 07:42:08;;;;;;;6.85;3.42;;;11.50;99.90;;;;;;5064961;28;20171;-87
2022/09/25 07:44:34;;;;;;;5.75;3.55;;;11.50;99.90;;;;;;5064586;28;20636;-87
2022/09/25 07:47:00;;;;;;;3.92;3.03;;;11.70;99.90;;;;;;5047788;28;20274;-87
2022/09/25 07:49:27;;;;;;;4.53;3.25;;;11.60;99.90;;;;;;5068409;28;20209;-88
2022/09/25 07:51:52;;;;;;;4.93;3.15;;;11.60;99.90;;;;;;5039370;28;20176;-87
2022/09/25 07:54:18;;;;;;;4.63;2.88;;;11.80;99.90;;;;;;5068540;28;20575;-87
2022/09/25 07:56:43;;;;;;;3.63;3.25;;;11.80;99.90;;;;;;5069248;28;20263;-87
2022/09/25 07:59:09;;;;;;;6.55;3.13;;;12.90;99.90;;;;;;5055843;28;20184;-86
2022/09/25 08:01:34;;;;;;;2.85;2.15;;;12.10;99.90;;;;;;5038259;28;20580;-87
2022/09/25 08:04:00;;;;;;;4.03;2.38;;;12.20;99.90;;;;;;5058995;28;20183;-90
2022/09/25 08:06:26;;;;;;;3.92;2.28;;;12.20;99.90;;;;;;5059729;28;20188;-88
2022/09/25 08:08:52;;;;;;;3.38;2.40;;;12.70;99.90;;;;;;5096512;28;20178;-88
2022/09/25 08:11:17;;;;;;;3.10;2.65;;;12.30;99.90;;;;;;5095817;28;20202;-89
2022/09/25 08:13:44;;;;;;;3.95;2.53;;;12.80;99.90;;;;;;5096367;28;20210;-87
2022/09/25 08:16:12;;;;;;;6.57;2.72;;;12.40;99.90;;;;;;5101248;28;20352;-86
2022/09/25 08:18:40;;;;;;;5.47;3.30;;;12.50;99.90;;;;;;5069371;28;20180;-87
2022/09/25 08:21:06;;;;;;;3.30;2.83;;;12.70;99.90;;;;;;5047614;28;20259;-87
2022/09/25 08:23:32;;;;;;;2.85;2.45;;;12.70;99.90;;;;;;5059956;28;20254;-87
2022/09/25 08:25:59;;;;;;;5.13;2.55;;;12.80;99.90;;;;;;5042933;28;20203;-86
2022/09/25 08:28:25;;;;;;;4.43;3.20;;;12.80;99.90;;;;;;5080146;28;20170;-86
2022/09/25 08:30:50;;;;;;;6.70;2.30;;;13.00;99.90;;;;;;5096760;28;20218;-86
2022/09/25 08:33:16;;;;;;;6.72;2.10;;;13.10;99.90;;;;;;5098991;28;20229;-86
2022/09/25 08:35:43;;;;;;;2.92;2.22;;;13.20;99.90;;;;;;5082362;28;20160;-87
2022/09/25 08:38:12;;;;;;;3.42;2.65;;;13.30;99.90;;;;;;5093528;28;20186;-87
2022/09/25 08:41:13;;;;;;;2.10;1.90;;;13.40;99.90;;;;;;5079665;28;20177;-87
2022/09/25 08:50:08;;;;;;;2.90;2.22;;;13.40;99.90;;;;;;5079331;28;20187;-86
2022/09/25 08:52:34;;;;;;;4.25;2.88;;;13.50;99.90;;;;;;5057731;28;20172;-86
2022/09/25 08:55:00;;;;;;;5.65;3.13;;;13.50;99.90;;;;;;5036969;28;20215;-87
2022/09/25 08:57:28;;;;;;;2.10;1.90;;;13.50;99.90;;;;;;5055906;28;20263;-89
2022/09/25 08:59:59;;;;;;;2.67;2.17;;;13.70;99.90;;;;;;5055110;28;20652;-86
2022/09/25 09:02:50;;;;;;;2.75;2.22;;;13.80;99.90;;;;;;5036981;28;20659;-87
2022/09/25 09:05:28;;;;;;;3.53;2.22;;;14.00;99.90;;;;;;5054655;28;20234;-87
2022/09/25 09:08:02;;;;;;;3.75;3.08;;;14.10;99.90;;;;;;5053872;28;20644;-87
2022/09/25 09:10:34;;;;;;;4.32;2.65;;;14.30;99.90;;;;;;5040107;28;20176;-86
2022/09/25 09:13:09;;;;;;;5.55;3.17;;;14.30;99.90;;;;;;5053748;28;20242;-87
2022/09/25 09:15:42;;;;;;;3.47;3.13;;;14.40;99.90;;;;;;5056295;28;20164;-85
2022/09/25 09:18:22;;;;;;;4.10;2.20;;;14.60;99.90;;;;;;5055920;28;20188;-85
2022/09/25 09:20:52;;;;;;;4.22;2.63;;;14.70;99.90;;;;;;5055511;28;20164;-87
2022/09/25 09:23:21;;;;;;;4.78;2.22;;;14.90;99.90;;;;;;5055006;28;20180;-86
2022/09/25 09:26:24;;;;;;;4.22;2.83;;;14.80;99.90;;;;;;5036645;28;20670;-87
2022/09/25 09:29:36;;;;;;;5.40;3.10;;;14.80;99.90;;;;;;5023573;28;20194;-87
2022/09/25 09:32:31;;;;;;;3.33;2.53;;;14.90;99.90;;;;;;5049704;28;20528;-86
2022/09/25 09:35:01;;;;;;;2.95;2.55;;;14.90;99.90;;;;;;5050285;28;20203;-86
2022/09/25 09:37:56;;;;;;;4.00;2.55;;;15.00;99.90;;;;;;5051956;28;20267;-89
2022/09/25 09:40:54;;;;;;;4.07;2.20;;;15.20;99.90;;;;;;5051712;28;20260;-87
2022/09/25 09:43:36;;;;;;;2.22;2.03;;;15.40;99.90;;;;;;5035814;28;20634;-87
2022/09/25 09:46:31;;;;;;;3.47;2.50;;;15.50;99.90;;;;;;5034732;28;20245;-87
2022/09/25 09:49:05;;;;;;;4.00;2.63;;;15.50;99.90;;;;;;5049623;28;20227;-86
2022/09/25 09:51:48;;;;;;;3.05;2.30;;;15.50;99.90;;;;;;5052858;28;20175;-86
2022/09/25 09:54:16;;;;;;;3.35;2.30;;;15.50;99.90;;;;;;5052907;28;20200;-87
2022/09/25 09:56:47;;;;;;;4.20;2.33;;;15.50;99.90;;;;;;5026216;28;20182;-87
2022/09/25 09:59:21;;;;;;;4.82;2.17;;;15.50;99.90;;;;;;5052092;28;20176;-87
2022/09/25 10:01:59;;;;;;;3.60;2.35;;;15.50;99.90;;;;;;5031680;28;20167;-86
2022/09/25 10:04:34;;;;;;;4.07;2.10;;;15.50;99.90;;;;;;5050943;28;20598;-88
2022/09/25 10:07:10;;;;;;;3.85;2.40;;;15.50;99.90;;;;;;5049101;28;20687;-87
2022/09/25 10:09:36;;;;;;;4.53;2.72;;;15.50;99.90;;;;;;5024499;28;20607;-87
2022/09/25 10:12:20;;;;;;;2.97;2.28;;;15.60;99.90;;;;;;5051395;28;20238;-87
2022/09/25 10:14:47;;;;;;;2.97;1.80;;;15.70;99.90;;;;;;5049374;28;20187;-87
2022/09/25 10:17:14;;;;;;;2.63;2.20;;;15.80;99.90;;;;;;5052178;28;20187;-86
2022/09/25 10:19:50;;;;;;;4.68;2.42;;;15.80;99.90;;;;;;5010148;28;20215;-87
2022/09/25 10:22:19;;;;;;;6.22;2.45;;;16.00;99.90;;;;;;5050346;28;20648;-88
2022/09/25 10:24:51;;;;;;;2.38;2.03;;;16.00;99.90;;;;;;5048185;28;20179;-87
2022/09/25 10:27:27;;;;;;;3.25;2.22;;;16.10;99.90;;;;;;5041612;28;20181;-88
2022/09/25 10:30:10;;;;;;;3.72;2.45;;;16.20;99.90;;;;;;5051466;28;20175;-86
2022/09/25 10:33:02;;;;;;;4.30;2.22;;;16.20;99.90;;;;;;5035966;28;20180;-88
2022/09/25 10:35:42;;;;;;;5.78;3.33;;;16.20;99.90;;;;;;5034723;28;20176;-88
2022/09/25 10:38:26;;;;;;;3.35;2.28;;;16.40;99.90;;;;;;5033431;28;20176;-85
2022/09/25 10:41:12;;;;;;;2.47;1.85;;;16.50;99.90;;;;;;5033282;28;20167;-86
2022/09/25 10:43:59;;;;;;;2.92;1.95;;;16.50;99.90;;;;;;5037249;28;20176;-86
2022/09/25 10:52:14;;;;;;;2.67;2.33;;;17.00;99.90;;;;;;5036973;28;20200;-86
2022/09/25 10:54:41;;;;;;;2.67;1.83;;;17.00;99.90;;;;;;5037257;28;20220;-85
2022/09/25 10:57:37;;;;;;;6.72;2.30;;;17.30;99.90;;;;;;5035612;28;20172;-86
2022/09/25 11:00:24;;;;;;;2.85;2.22;;;17.50;99.90;;;;;;5002741;28;20188;-87
2022/09/25 11:02:57;;;;;;;2.03;1.83;;;17.40;99.90;;;;;;5036229;28;20164;-86
2022/09/25 11:05:30;;;;;;;4.60;2.20;;;17.30;99.90;;;;;;5037063;28;20179;-86
2022/09/25 11:07:59;;;;;;;2.03;1.85;;;17.20;99.90;;;;;;5036348;28;20161;-86
2022/09/25 11:10:28;;;;;;;1.98;1.60;;;17.20;99.90;;;;;;5018932;28;20191;-87
2022/09/25 11:12:55;;;;;;;5.35;2.00;;;17.10;99.90;;;;;;5035246;28;20680;-86
2022/09/25 11:15:25;;;;;;;2.85;1.67;;;17.10;99.90;;;;;;5018981;28;20212;-86
2022/09/25 11:17:55;;;;;;;1.77;1.30;;;17.00;99.90;;;;;;5035081;28;20187;-87
2022/09/25 11:20:30;;;;;;;3.03;1.90;;;17.00;99.90;;;;;;5019787;28;20184;-86
2022/09/25 11:23:27;;;;;;;3.03;1.92;;;16.80;99.90;;;;;;5039353;28;20218;-87
2022/09/25 11:26:25;;;;;;;2.55;1.90;;;16.70;99.90;;;;;;5035932;28;20196;-86
2022/09/25 11:29:08;;;;;;;2.60;1.45;;;16.60;99.90;;;;;;5021715;28;20192;-86
2022/09/25 11:31:54;;;;;;;1.95;1.80;;;16.60;99.90;;;;;;5055113;28;20194;-87
2022/09/25 11:35:02;;;;;;;2.95;2.10;;;16.60;99.90;;;;;;5029308;28;20238;-89
2022/09/25 11:37:34;;;;;;;3.17;1.90;;;16.50;99.90;;;;;;5047296;28;20179;-87
2022/09/25 11:43:07;;;;;;;3.90;1.92;;;16.30;99.90;;;;;;5044450;28;20251;-88
2022/09/25 11:45:42;;;;;;;1.77;1.52;;;16.30;99.90;;;;;;5031888;28;20202;-87
2022/09/25 11:48:49;;;;;;;1.98;1.52;;;16.30;99.90;;;;;;5042012;28;20228;-87
2022/09/25 11:51:38;;;;;;;2.15;1.92;;;16.20;99.90;;;;;;4953828;28;20183;-88
2022/09/25 11:54:06;;;;;;;3.80;1.77;;;16.20;99.90;;;;;;5045202;28;20258;-87
2022/09/25 11:56:48;;;;;;;2.95;1.95;;;16.20;99.90;;;;;;5045688;28;20226;-88
2022/09/25 11:59:29;;;;;;;1.50;1.40;;;16.20;99.90;;;;;;5045394;28;20249;-89
2022/09/25 12:02:09;;;;;;;3.00;1.60;;;16.20;99.90;;;;;;5025883;28;20172;-89
2022/09/25 12:04:54;;;;;;;5.85;2.40;;;16.30;99.90;;;;;;5038794;28;20629;-88
2022/09/25 12:07:38;;;;;;;2.70;1.75;;;16.20;99.90;;;;;;5028505;28;20268;-89
2022/09/25 12:10:10;;;;;;;7.95;2.30;;;16.20;99.90;;;;;;5041942;28;20659;-89
2022/09/25 12:15:45;;;;;;;2.53;2.22;;;16.10;99.90;;;;;;5524599;22;20221;-89
2022/09/25 12:18:43;;;;;;;2.33;1.73;;;16.40;99.90;;;;;;5054179;28;20176;-90
2022/09/25 12:21:19;;;;;;;3.38;1.83;;;16.10;99.90;;;;;;5032438;28;20195;-90
2022/09/25 12:24:00;;;;;;;2.17;1.83;;;16.10;99.90;;;;;;5059712;28;20199;-89
2022/09/25 12:26:50;;;;;;;2.15;1.55;;;16.00;99.90;;;;;;5056266;28;20228;-89
2022/09/25 12:29:34;;;;;;;3.45;1.80;;;15.90;99.90;;;;;;5061666;28;20160;-89
2022/09/25 12:32:13;;;;;;;3.33;1.85;;;15.90;99.90;;;;;;5044117;28;20176;-90
2022/09/25 12:34:49;;;;;;;4.60;2.58;;;15.80;99.90;;;;;;5062480;28;20195;-90
2022/09/25 12:37:33;;;;;;;2.53;1.63;;;15.80;99.90;;;;;;5042085;28;20662;-87
2022/09/25 12:40:03;;;;;;;4.45;1.88;;;15.80;99.90;;;;;;5061965;28;20175;-86
2022/09/25 12:42:43;;;;;;;2.00;1.80;;;15.70;99.90;;;;;;5047327;28;20206;-91
2022/09/25 12:45:46;;;;;;;2.80;1.60;;;15.60;99.90;;;;;;5053303;28;20260;-87
2022/09/25 12:48:28;;;;;;;2.60;1.80;;;15.60;99.90;;;;;;5050497;28;20179;-89
2022/09/25 12:51:21;;;;;;;3.20;1.80;;;15.50;99.90;;;;;;5054362;28;20298;-92
2022/09/25 12:54:14;;;;;;;2.15;1.83;;;15.50;99.90;;;;;;5058223;28;20208;-86
2022/09/25 12:57:02;;;;;;;4.93;2.05;;;15.50;99.90;;;;;;5026789;28;20270;-88
2022/09/25 12:59:39;;;;;;;1.98;1.75;;;15.50;99.90;;;;;;5059423;28;20167;-89
2022/09/25 13:02:27;;;;;;;4.57;2.10;;;15.50;99.90;;;;;;5048118;28;20186;-87
2022/09/25 13:05:17;;;;;;;2.00;1.65;;;15.50;99.90;;;;;;5053755;28;20270;-89
2022/09/25 13:07:52;;;;;;;2.50;1.30;;;15.50;99.90;;;;;;5037822;28;20194;-88
2022/09/25 13:10:32;;;;;;;2.47;1.73;;;15.50;99.90;;;;;;5052730;28;20229;-88
2022/09/25 13:13:01;;;;;;;1.80;1.52;;;15.40;99.90;;;;;;5033307;28;20248;-89
2022/09/25 13:15:31;;;;;;;1.83;1.55;;;15.30;99.90;;;;;;5045886;28;20217;-91
2022/09/25 13:17:58;;;;;;;8.82;2.10;;;15.20;99.90;;;;;;5034488;28;20222;-90
2022/09/25 13:20:27;;;;;;;1.83;1.58;;;15.20;99.90;;;;;;5035232;28;20649;-90
2022/09/25 13:23:01;;;;;;;3.35;1.58;;;15.80;99.90;;;;;;5014428;28;20257;-89
2022/09/25 13:25:27;;;;;;;3.50;1.95;;;15.10;99.90;;;;;;5031496;28;20562;-89
2022/09/25 13:27:55;;;;;;;2.08;1.70;;;15.00;99.90;;;;;;4998446;28;20185;-89
2022/09/25 13:30:29;;;;;;;3.53;1.58;;;15.00;99.90;;;;;;5032465;28;20255;-88
2022/09/25 13:33:02;;;;;;;2.38;1.58;;;14.30;99.90;;;;;;5030862;28;20180;-88
2022/09/25 13:35:29;;;;;;;3.33;1.52;;;14.90;99.90;;;;;;5014178;28;20594;-88
2022/09/25 13:40:41;;;;;;;1.83;1.50;;;15.00;99.90;;;;;;5012783;28;20180;-88
2022/09/25 13:41:12;;;;;;;2.75;1.92;;;14.90;99.90;;;;;;5035244;28;20200;-87
2022/09/25 13:43:38;;;;;;;2.35;1.98;;;14.90;99.90;;;;;;5036930;28;20179;-89
2022/09/25 13:46:20;;;;;;;1.60;1.30;;;14.90;99.90;;;;;;5032967;28;20255;-91
2022/09/25 13:48:46;;;;;;;3.25;2.28;;;14.80;99.90;;;;;;5017952;28;20177;-88
2022/09/25 13:51:20;;;;;;;6.05;2.78;;;14.80;99.90;;;;;;5032956;28;20173;-88